sensor_id;sensor_type;location;lat;lon;timestamp;P1;durP1;ratioP1;P2;durP2;ratioP2
64291;SDS011;50628;51.008;13.658;2023-11-21T00:02:50;3.27;;;0.90;;
64291;SDS011;50628;51.008;13.658;2023-11-21T00:07:52;3.43;;;0.90;;
64291;SDS011;50628;51.008;13.658;2023-11-21T00:12:53;3.23;;;1.13;;
64291;SDS011;50628;51.008;13.658;2023-11-21T00:17:57;1.77;;;1.00;;
64291;SDS011;50628;51.008;13.658;2023-11-21T00:22:59;3.90;;;1.03;;
64291;SDS011;50628;51.008;13.658;2023-11-21T00:28:02;1.90;;;0.77;;
64291;SDS011;50628;51.008;13.658;2023-11-21T00:33:06;2.80;;;1.20;;
64291;SDS011;50628;51.008;13.658;2023-11-21T00:38:08;4.83;;;1.00;;
64291;SDS011;50628;51.008;13.658;2023-11-21T00:43:10;1.80;;;1.30;;
64291;SDS011;50628;51.008;13.658;2023-11-21T00:48:13;1.90;;;1.17;;
64291;SDS011;50628;51.008;13.658;2023-11-21T00:53:15;1.63;;;1.00;;
64291;SDS011;50628;51.008;13.658;2023-11-21T00:58:17;2.40;;;1.40;;
64291;SDS011;50628;51.008;13.658;2023-11-21T01:03:22;5.37;;;1.40;;
64291;SDS011;50628;51.008;13.658;2023-11-21T01:08:23;3.23;;;1.00;;
64291;SDS011;50628;51.008;13.658;2023-11-21T01:13:25;4.93;;;1.23;;
64291;SDS011;50628;51.008;13.658;2023-11-21T01:18:31;1.97;;;1.20;;
64291;SDS011;50628;51.008;13.658;2023-11-21T01:23:32;3.67;;;1.40;;
64291;SDS011;50628;51.008;13.658;2023-11-21T01:28:35;4.43;;;1.33;;
64291;SDS011;50628;51.008;13.658;2023-11-21T01:33:38;2.33;;;1.50;;
64291;SDS011;50628;51.008;13.658;2023-11-21T01:38:41;4.07;;;1.80;;
64291;SDS011;50628;51.008;13.658;2023-11-21T01:43:43;4.10;;;1.30;;
64291;SDS011;50628;51.008;13.658;2023-11-21T01:48:47;5.60;;;1.23;;
64291;SDS011;50628;51.008;13.658;2023-11-21T01:53:50;4.67;;;1.50;;
64291;SDS011;50628;51.008;13.658;2023-11-21T01:58:52;4.80;;;1.43;;
64291;SDS011;50628;51.008;13.658;2023-11-21T02:03:55;3.90;;;1.17;;
64291;SDS011;50628;51.008;13.658;2023-11-21T02:08:57;2.50;;;1.30;;
64291;SDS011;50628;51.008;13.658;2023-11-21T02:14:01;5.17;;;1.50;;
64291;SDS011;50628;51.008;13.658;2023-11-21T02:19:05;3.93;;;1.30;;
64291;SDS011;50628;51.008;13.658;2023-11-21T02:24:11;4.30;;;1.20;;
64291;SDS011;50628;51.008;13.658;2023-11-21T02:29:13;2.53;;;0.90;;
64291;SDS011;50628;51.008;13.658;2023-11-21T02:34:17;5.43;;;1.27;;
64291;SDS011;50628;51.008;13.658;2023-11-21T02:39:21;2.43;;;1.03;;
64291;SDS011;50628;51.008;13.658;2023-11-21T02:44:23;4.67;;;1.17;;
64291;SDS011;50628;51.008;13.658;2023-11-21T02:49:26;2.70;;;1.30;;
64291;SDS011;50628;51.008;13.658;2023-11-21T02:54:30;4.43;;;1.40;;
64291;SDS011;50628;51.008;13.658;2023-11-21T02:59:36;4.47;;;1.27;;
64291;SDS011;50628;51.008;13.658;2023-11-21T03:04:38;2.60;;;0.97;;
64291;SDS011;50628;51.008;13.658;2023-11-21T03:09:41;6.10;;;1.40;;
64291;SDS011;50628;51.008;13.658;2023-11-21T03:14:43;5.27;;;1.50;;
64291;SDS011;50628;51.008;13.658;2023-11-21T03:19:45;4.47;;;0.97;;
64291;SDS011;50628;51.008;13.658;2023-11-21T03:24:48;3.00;;;1.00;;
64291;SDS011;50628;51.008;13.658;2023-11-21T03:29:50;6.90;;;1.60;;
64291;SDS011;50628;51.008;13.658;2023-11-21T03:34:52;4.93;;;1.93;;
64291;SDS011;50628;51.008;13.658;2023-11-21T03:39:58;3.20;;;1.37;;
64291;SDS011;50628;51.008;13.658;2023-11-21T03:45:00;3.57;;;1.30;;
64291;SDS011;50628;51.008;13.658;2023-11-21T03:50:03;5.97;;;1.40;;
64291;SDS011;50628;51.008;13.658;2023-11-21T03:55:07;3.17;;;1.00;;
64291;SDS011;50628;51.008;13.658;2023-11-21T04:00:11;7.40;;;1.97;;
64291;SDS011;50628;51.008;13.658;2023-11-21T04:05:13;3.33;;;1.50;;
64291;SDS011;50628;51.008;13.658;2023-11-21T04:10:16;6.07;;;1.70;;
64291;SDS011;50628;51.008;13.658;2023-11-21T04:15:19;4.80;;;1.90;;
64291;SDS011;50628;51.008;13.658;2023-11-21T04:20:20;6.10;;;1.80;;
64291;SDS011;50628;51.008;13.658;2023-11-21T04:25:25;5.63;;;2.33;;
64291;SDS011;50628;51.008;13.658;2023-11-21T04:30:27;6.97;;;2.33;;
64291;SDS011;50628;51.008;13.658;2023-11-21T04:35:29;7.57;;;2.10;;
64291;SDS011;50628;51.008;13.658;2023-11-21T04:40:32;14.43;;;5.80;;
64291;SDS011;50628;51.008;13.658;2023-11-21T04:45:34;6.30;;;2.20;;
64291;SDS011;50628;51.008;13.658;2023-11-21T04:50:36;5.50;;;2.50;;
64291;SDS011;50628;51.008;13.658;2023-11-21T04:55:39;4.47;;;2.40;;
64291;SDS011;50628;51.008;13.658;2023-11-21T05:00:41;7.50;;;2.90;;
64291;SDS011;50628;51.008;13.658;2023-11-21T05:05:43;5.07;;;2.43;;
64291;SDS011;50628;51.008;13.658;2023-11-21T05:10:46;4.73;;;2.40;;
64291;SDS011;50628;51.008;13.658;2023-11-21T05:15:49;5.80;;;2.47;;
64291;SDS011;50628;51.008;13.658;2023-11-21T05:20:51;7.90;;;2.37;;
64291;SDS011;50628;51.008;13.658;2023-11-21T05:25:54;7.97;;;2.63;;
64291;SDS011;50628;51.008;13.658;2023-11-21T05:30:57;9.03;;;2.57;;
64291;SDS011;50628;51.008;13.658;2023-11-21T05:35:59;7.43;;;3.00;;
64291;SDS011;50628;51.008;13.658;2023-11-21T05:41:02;8.13;;;2.70;;
64291;SDS011;50628;51.008;13.658;2023-11-21T05:46:05;8.43;;;2.80;;
64291;SDS011;50628;51.008;13.658;2023-11-21T05:51:07;9.67;;;3.07;;
64291;SDS011;50628;51.008;13.658;2023-11-21T05:56:11;8.93;;;2.80;;
64291;SDS011;50628;51.008;13.658;2023-11-21T06:01:13;6.50;;;2.40;;
64291;SDS011;50628;51.008;13.658;2023-11-21T06:06:15;7.50;;;3.70;;
64291;SDS011;50628;51.008;13.658;2023-11-21T06:11:20;8.27;;;3.13;;
64291;SDS011;50628;51.008;13.658;2023-11-21T06:16:22;6.17;;;3.37;;
64291;SDS011;50628;51.008;13.658;2023-11-21T06:21:24;12.87;;;5.07;;
64291;SDS011;50628;51.008;13.658;2023-11-21T06:26:28;9.13;;;4.00;;
64291;SDS011;50628;51.008;13.658;2023-11-21T06:31:31;8.70;;;4.00;;
64291;SDS011;50628;51.008;13.658;2023-11-21T06:36:33;16.27;;;4.53;;
64291;SDS011;50628;51.008;13.658;2023-11-21T06:41:36;8.00;;;4.10;;
64291;SDS011;50628;51.008;13.658;2023-11-21T06:46:39;9.27;;;3.93;;
64291;SDS011;50628;51.008;13.658;2023-11-21T06:51:42;12.73;;;4.07;;
64291;SDS011;50628;51.008;13.658;2023-11-21T06:56:45;12.83;;;5.10;;
64291;SDS011;50628;51.008;13.658;2023-11-21T07:01:48;7.37;;;3.40;;
64291;SDS011;50628;51.008;13.658;2023-11-21T07:06:50;11.30;;;3.77;;
64291;SDS011;50628;51.008;13.658;2023-11-21T07:11:53;9.60;;;4.03;;
64291;SDS011;50628;51.008;13.658;2023-11-21T07:16:56;11.07;;;4.10;;
64291;SDS011;50628;51.008;13.658;2023-11-21T07:21:58;12.93;;;4.20;;
64291;SDS011;50628;51.008;13.658;2023-11-21T07:27:02;12.30;;;5.93;;
64291;SDS011;50628;51.008;13.658;2023-11-21T07:32:04;14.77;;;6.37;;
64291;SDS011;50628;51.008;13.658;2023-11-21T07:37:06;18.60;;;6.27;;
64291;SDS011;50628;51.008;13.658;2023-11-21T07:42:10;11.83;;;4.83;;
64291;SDS011;50628;51.008;13.658;2023-11-21T07:47:12;16.20;;;5.50;;
64291;SDS011;50628;51.008;13.658;2023-11-21T07:52:14;18.57;;;7.00;;
64291;SDS011;50628;51.008;13.658;2023-11-21T07:57:17;34.20;;;13.40;;
64291;SDS011;50628;51.008;13.658;2023-11-21T08:02:19;27.33;;;8.10;;
64291;SDS011;50628;51.008;13.658;2023-11-21T08:07:21;12.80;;;5.03;;
64291;SDS011;50628;51.008;13.658;2023-11-21T08:12:24;18.17;;;6.13;;
64291;SDS011;50628;51.008;13.658;2023-11-21T08:17:27;15.87;;;6.30;;
64291;SDS011;50628;51.008;13.658;2023-11-21T08:22:29;13.53;;;5.53;;
64291;SDS011;50628;51.008;13.658;2023-11-21T08:27:33;18.77;;;6.53;;
64291;SDS011;50628;51.008;13.658;2023-11-21T08:32:35;14.70;;;6.30;;
64291;SDS011;50628;51.008;13.658;2023-11-21T08:37:37;14.97;;;6.47;;
64291;SDS011;50628;51.008;13.658;2023-11-21T08:42:40;10.30;;;6.43;;
64291;SDS011;50628;51.008;13.658;2023-11-21T08:47:42;13.23;;;5.43;;
64291;SDS011;50628;51.008;13.658;2023-11-21T08:52:46;11.23;;;4.20;;
64291;SDS011;50628;51.008;13.658;2023-11-21T08:57:50;10.67;;;4.50;;
64291;SDS011;50628;51.008;13.658;2023-11-21T09:02:52;8.37;;;3.97;;
64291;SDS011;50628;51.008;13.658;2023-11-21T09:07:54;8.33;;;4.20;;
64291;SDS011;50628;51.008;13.658;2023-11-21T09:12:57;8.83;;;4.83;;
64291;SDS011;50628;51.008;13.658;2023-11-21T09:17:59;10.67;;;5.07;;
64291;SDS011;50628;51.008;13.658;2023-11-21T09:23:01;6.83;;;4.40;;
64291;SDS011;50628;51.008;13.658;2023-11-21T09:28:05;6.63;;;3.77;;
64291;SDS011;50628;51.008;13.658;2023-11-21T09:33:08;6.57;;;4.80;;
64291;SDS011;50628;51.008;13.658;2023-11-21T09:38:10;5.30;;;3.40;;
64291;SDS011;50628;51.008;13.658;2023-11-21T09:43:16;7.07;;;4.40;;
64291;SDS011;50628;51.008;13.658;2023-11-21T09:48:18;4.83;;;3.00;;
64291;SDS011;50628;51.008;13.658;2023-11-21T09:53:22;7.13;;;3.00;;
64291;SDS011;50628;51.008;13.658;2023-11-21T09:58:26;3.30;;;2.23;;
64291;SDS011;50628;51.008;13.658;2023-11-21T10:03:28;3.17;;;2.30;;
64291;SDS011;50628;51.008;13.658;2023-11-21T10:08:31;3.83;;;1.70;;
64291;SDS011;50628;51.008;13.658;2023-11-21T10:13:35;1.70;;;1.60;;
64291;SDS011;50628;51.008;13.658;2023-11-21T10:18:37;2.80;;;2.03;;
64291;SDS011;50628;51.008;13.658;2023-11-21T10:23:41;4.17;;;1.63;;
64291;SDS011;50628;51.008;13.658;2023-11-21T10:28:55;3.07;;;2.33;;
64291;SDS011;50628;51.008;13.658;2023-11-21T10:34:11;3.03;;;2.73;;
64291;SDS011;50628;51.008;13.658;2023-11-21T10:39:14;5.93;;;4.53;;
64291;SDS011;50628;51.008;13.658;2023-11-21T10:44:20;7.60;;;5.37;;
64291;SDS011;50628;51.008;13.658;2023-11-21T10:49:24;11.60;;;8.03;;
64291;SDS011;50628;51.008;13.658;2023-11-21T10:54:27;16.00;;;8.17;;
64291;SDS011;50628;51.008;13.658;2023-11-21T10:59:30;12.93;;;10.27;;
64291;SDS011;50628;51.008;13.658;2023-11-21T11:04:32;14.43;;;9.90;;
64291;SDS011;50628;51.008;13.658;2023-11-21T11:09:38;11.47;;;8.73;;
64291;SDS011;50628;51.008;13.658;2023-11-21T11:14:41;11.27;;;8.87;;
64291;SDS011;50628;51.008;13.658;2023-11-21T11:19:45;8.43;;;6.27;;
64291;SDS011;50628;51.008;13.658;2023-11-21T11:24:54;9.63;;;7.17;;
64291;SDS011;50628;51.008;13.658;2023-11-21T11:30:17;10.10;;;7.47;;
64291;SDS011;50628;51.008;13.658;2023-11-21T11:35:32;9.93;;;6.80;;
64291;SDS011;50628;51.008;13.658;2023-11-21T11:40:38;8.80;;;5.73;;
64291;SDS011;50628;51.008;13.658;2023-11-21T11:45:43;8.83;;;5.97;;
64291;SDS011;50628;51.008;13.658;2023-11-21T11:51:01;9.43;;;7.43;;
64291;SDS011;50628;51.008;13.658;2023-11-21T11:56:23;10.03;;;7.33;;
64291;SDS011;50628;51.008;13.658;2023-11-21T12:01:30;12.67;;;9.43;;
64291;SDS011;50628;51.008;13.658;2023-11-21T12:06:34;22.73;;;16.40;;
64291;SDS011;50628;51.008;13.658;2023-11-21T12:11:37;13.80;;;9.07;;
64291;SDS011;50628;51.008;13.658;2023-11-21T12:16:40;13.50;;;10.10;;
64291;SDS011;50628;51.008;13.658;2023-11-21T12:21:43;12.57;;;9.90;;
64291;SDS011;50628;51.008;13.658;2023-11-21T12:26:45;12.87;;;10.57;;
64291;SDS011;50628;51.008;13.658;2023-11-21T12:31:50;17.43;;;11.13;;
64291;SDS011;50628;51.008;13.658;2023-11-21T12:36:51;16.07;;;10.67;;
64291;SDS011;50628;51.008;13.658;2023-11-21T12:41:54;20.27;;;15.50;;
64291;SDS011;50628;51.008;13.658;2023-11-21T12:46:58;12.03;;;9.27;;
64291;SDS011;50628;51.008;13.658;2023-11-21T12:52:01;15.30;;;9.60;;
64291;SDS011;50628;51.008;13.658;2023-11-21T12:57:04;13.37;;;9.23;;
64291;SDS011;50628;51.008;13.658;2023-11-21T13:02:09;9.90;;;8.23;;
64291;SDS011;50628;51.008;13.658;2023-11-21T13:07:15;16.30;;;11.57;;
64291;SDS011;50628;51.008;13.658;2023-11-21T13:12:17;13.50;;;8.13;;
64291;SDS011;50628;51.008;13.658;2023-11-21T13:17:26;10.13;;;6.30;;
64291;SDS011;50628;51.008;13.658;2023-11-21T13:22:28;5.90;;;4.87;;
64291;SDS011;50628;51.008;13.658;2023-11-21T13:27:31;7.63;;;6.63;;
64291;SDS011;50628;51.008;13.658;2023-11-21T13:32:35;7.67;;;6.43;;
64291;SDS011;50628;51.008;13.658;2023-11-21T13:37:37;9.80;;;8.03;;
64291;SDS011;50628;51.008;13.658;2023-11-21T13:42:39;14.70;;;9.60;;
64291;SDS011;50628;51.008;13.658;2023-11-21T13:47:43;11.93;;;9.53;;
64291;SDS011;50628;51.008;13.658;2023-11-21T13:52:45;10.53;;;8.93;;
64291;SDS011;50628;51.008;13.658;2023-11-21T13:57:47;12.13;;;9.73;;
64291;SDS011;50628;51.008;13.658;2023-11-21T14:02:53;12.50;;;10.20;;
64291;SDS011;50628;51.008;13.658;2023-11-21T14:07:57;14.53;;;9.90;;
64291;SDS011;50628;51.008;13.658;2023-11-21T14:13:03;10.87;;;8.63;;
64291;SDS011;50628;51.008;13.658;2023-11-21T14:18:07;12.77;;;8.80;;
64291;SDS011;50628;51.008;13.658;2023-11-21T14:23:11;10.07;;;7.40;;
64291;SDS011;50628;51.008;13.658;2023-11-21T14:28:12;11.57;;;7.90;;
64291;SDS011;50628;51.008;13.658;2023-11-21T14:33:16;13.60;;;9.20;;
64291;SDS011;50628;51.008;13.658;2023-11-21T14:38:18;11.60;;;8.00;;
64291;SDS011;50628;51.008;13.658;2023-11-21T14:43:20;12.13;;;6.83;;
64291;SDS011;50628;51.008;13.658;2023-11-21T14:48:24;10.40;;;6.90;;
64291;SDS011;50628;51.008;13.658;2023-11-21T14:53:42;8.33;;;4.93;;
64291;SDS011;50628;51.008;13.658;2023-11-21T14:58:54;9.13;;;4.67;;
64291;SDS011;50628;51.008;13.658;2023-11-21T15:03:58;8.50;;;6.13;;
64291;SDS011;50628;51.008;13.658;2023-11-21T15:09:00;11.03;;;6.30;;
64291;SDS011;50628;51.008;13.658;2023-11-21T15:14:16;10.50;;;6.60;;
64291;SDS011;50628;51.008;13.658;2023-11-21T15:19:25;14.03;;;8.00;;
64291;SDS011;50628;51.008;13.658;2023-11-21T15:24:28;8.97;;;6.43;;
64291;SDS011;50628;51.008;13.658;2023-11-21T15:29:30;12.70;;;8.17;;
64291;SDS011;50628;51.008;13.658;2023-11-21T15:34:33;10.30;;;7.43;;
64291;SDS011;50628;51.008;13.658;2023-11-21T15:39:35;7.77;;;5.77;;
64291;SDS011;50628;51.008;13.658;2023-11-21T15:44:37;8.60;;;5.60;;
64291;SDS011;50628;51.008;13.658;2023-11-21T15:49:41;8.23;;;6.00;;
64291;SDS011;50628;51.008;13.658;2023-11-21T15:54:43;22.73;;;12.97;;
64291;SDS011;50628;51.008;13.658;2023-11-21T15:59:46;7.73;;;5.77;;
64291;SDS011;50628;51.008;13.658;2023-11-21T16:04:49;5.70;;;5.00;;
64291;SDS011;50628;51.008;13.658;2023-11-21T16:09:51;5.27;;;4.20;;
64291;SDS011;50628;51.008;13.658;2023-11-21T16:14:53;6.47;;;4.87;;
64291;SDS011;50628;51.008;13.658;2023-11-21T16:19:56;4.80;;;4.30;;
64291;SDS011;50628;51.008;13.658;2023-11-21T16:24:59;4.33;;;3.83;;
64291;SDS011;50628;51.008;13.658;2023-11-21T16:30:03;5.40;;;4.27;;
64291;SDS011;50628;51.008;13.658;2023-11-21T16:35:07;4.37;;;3.70;;
64291;SDS011;50628;51.008;13.658;2023-11-21T16:40:10;3.23;;;2.87;;
64291;SDS011;50628;51.008;13.658;2023-11-21T16:45:13;3.10;;;2.80;;
64291;SDS011;50628;51.008;13.658;2023-11-21T16:50:16;12.40;;;9.23;;
64291;SDS011;50628;51.008;13.658;2023-11-21T16:55:18;2.80;;;2.33;;
64291;SDS011;50628;51.008;13.658;2023-11-21T17:00:20;2.90;;;2.30;;
64291;SDS011;50628;51.008;13.658;2023-11-21T17:05:24;3.03;;;2.13;;
64291;SDS011;50628;51.008;13.658;2023-11-21T17:10:26;3.47;;;2.13;;
64291;SDS011;50628;51.008;13.658;2023-11-21T17:15:27;2.40;;;2.20;;
64291;SDS011;50628;51.008;13.658;2023-11-21T17:20:31;2.27;;;1.60;;
64291;SDS011;50628;51.008;13.658;2023-11-21T17:25:33;4.47;;;2.40;;
64291;SDS011;50628;51.008;13.658;2023-11-21T17:30:36;1.83;;;1.00;;
64291;SDS011;50628;51.008;13.658;2023-11-21T17:35:40;3.90;;;1.50;;
64291;SDS011;50628;51.008;13.658;2023-11-21T17:40:42;2.73;;;1.33;;
64291;SDS011;50628;51.008;13.658;2023-11-21T17:45:45;1.47;;;1.30;;
64291;SDS011;50628;51.008;13.658;2023-11-21T17:50:48;2.53;;;1.77;;
64291;SDS011;50628;51.008;13.658;2023-11-21T17:55:50;1.50;;;1.30;;
64291;SDS011;50628;51.008;13.658;2023-11-21T18:00:52;1.40;;;1.30;;
64291;SDS011;50628;51.008;13.658;2023-11-21T18:05:55;1.20;;;1.10;;
64291;SDS011;50628;51.008;13.658;2023-11-21T18:10:57;1.43;;;1.30;;
64291;SDS011;50628;51.008;13.658;2023-11-21T18:16:01;2.40;;;1.87;;
64291;SDS011;50628;51.008;13.658;2023-11-21T18:21:04;6.63;;;1.90;;
64291;SDS011;50628;51.008;13.658;2023-11-21T18:26:07;1.47;;;1.33;;
64291;SDS011;50628;51.008;13.658;2023-11-21T18:31:09;2.60;;;1.87;;
64291;SDS011;50628;51.008;13.658;2023-11-21T18:36:12;4.30;;;1.80;;
64291;SDS011;50628;51.008;13.658;2023-11-21T18:41:19;1.73;;;1.63;;
64291;SDS011;50628;51.008;13.658;2023-11-21T18:46:22;6.30;;;2.63;;
64291;SDS011;50628;51.008;13.658;2023-11-21T18:51:25;1.53;;;1.43;;
64291;SDS011;50628;51.008;13.658;2023-11-21T18:56:27;3.63;;;1.90;;
64291;SDS011;50628;51.008;13.658;2023-11-21T19:01:31;2.50;;;1.73;;
64291;SDS011;50628;51.008;13.658;2023-11-21T19:06:34;2.23;;;1.83;;
64291;SDS011;50628;51.008;13.658;2023-11-21T19:11:36;4.10;;;2.10;;
64291;SDS011;50628;51.008;13.658;2023-11-21T19:16:38;6.73;;;2.30;;
64291;SDS011;50628;51.008;13.658;2023-11-21T19:21:41;2.87;;;2.53;;
64291;SDS011;50628;51.008;13.658;2023-11-21T19:26:44;3.90;;;2.77;;
64291;SDS011;50628;51.008;13.658;2023-11-21T19:31:47;2.83;;;1.83;;
64291;SDS011;50628;51.008;13.658;2023-11-21T19:36:50;4.77;;;2.40;;
64291;SDS011;50628;51.008;13.658;2023-11-21T19:41:52;2.80;;;1.90;;
64291;SDS011;50628;51.008;13.658;2023-11-21T19:46:54;3.47;;;2.63;;
64291;SDS011;50628;51.008;13.658;2023-11-21T19:51:57;2.47;;;2.27;;
64291;SDS011;50628;51.008;13.658;2023-11-21T19:56:59;2.27;;;1.80;;
64291;SDS011;50628;51.008;13.658;2023-11-21T20:02:04;1.50;;;1.40;;
64291;SDS011;50628;51.008;13.658;2023-11-21T20:07:08;4.40;;;3.70;;
64291;SDS011;50628;51.008;13.658;2023-11-21T20:12:10;1.70;;;1.60;;
64291;SDS011;50628;51.008;13.658;2023-11-21T20:17:12;2.00;;;1.90;;
64291;SDS011;50628;51.008;13.658;2023-11-21T20:22:16;3.60;;;2.00;;
64291;SDS011;50628;51.008;13.658;2023-11-21T20:27:18;2.40;;;1.80;;
64291;SDS011;50628;51.008;13.658;2023-11-21T20:32:19;3.70;;;2.57;;
64291;SDS011;50628;51.008;13.658;2023-11-21T20:37:26;5.60;;;3.10;;
64291;SDS011;50628;51.008;13.658;2023-11-21T20:42:27;3.80;;;3.27;;
64291;SDS011;50628;51.008;13.658;2023-11-21T20:47:29;3.70;;;2.80;;
64291;SDS011;50628;51.008;13.658;2023-11-21T20:52:34;4.27;;;3.63;;
64291;SDS011;50628;51.008;13.658;2023-11-21T20:57:36;3.30;;;3.03;;
64291;SDS011;50628;51.008;13.658;2023-11-21T21:02:38;3.30;;;2.97;;
64291;SDS011;50628;51.008;13.658;2023-11-21T21:07:41;4.53;;;3.23;;
64291;SDS011;50628;51.008;13.658;2023-11-21T21:12:44;2.93;;;2.73;;
64291;SDS011;50628;51.008;13.658;2023-11-21T21:17:46;3.40;;;2.70;;
64291;SDS011;50628;51.008;13.658;2023-11-21T21:22:49;3.27;;;2.93;;
64291;SDS011;50628;51.008;13.658;2023-11-21T21:27:53;3.67;;;3.23;;
64291;SDS011;50628;51.008;13.658;2023-11-21T21:32:55;3.90;;;3.60;;
64291;SDS011;50628;51.008;13.658;2023-11-21T21:38:01;3.70;;;3.40;;
64291;SDS011;50628;51.008;13.658;2023-11-21T21:43:04;4.97;;;4.07;;
64291;SDS011;50628;51.008;13.658;2023-11-21T21:48:06;4.77;;;3.77;;
64291;SDS011;50628;51.008;13.658;2023-11-21T21:53:10;4.60;;;4.20;;
64291;SDS011;50628;51.008;13.658;2023-11-21T21:58:12;5.30;;;4.80;;
64291;SDS011;50628;51.008;13.658;2023-11-21T22:03:14;5.73;;;5.00;;
64291;SDS011;50628;51.008;13.658;2023-11-21T22:08:17;5.77;;;5.23;;
64291;SDS011;50628;51.008;13.658;2023-11-21T22:13:19;6.00;;;5.33;;
64291;SDS011;50628;51.008;13.658;2023-11-21T22:18:21;6.60;;;5.67;;
64291;SDS011;50628;51.008;13.658;2023-11-21T22:23:25;7.23;;;6.50;;
64291;SDS011;50628;51.008;13.658;2023-11-21T22:28:27;6.63;;;5.97;;
64291;SDS011;50628;51.008;13.658;2023-11-21T22:33:29;6.17;;;5.50;;
64291;SDS011;50628;51.008;13.658;2023-11-21T22:38:32;7.10;;;5.90;;
64291;SDS011;50628;51.008;13.658;2023-11-21T22:43:34;7.10;;;6.20;;
64291;SDS011;50628;51.008;13.658;2023-11-21T22:48:36;6.70;;;5.97;;
64291;SDS011;50628;51.008;13.658;2023-11-21T22:53:39;8.40;;;7.60;;
64291;SDS011;50628;51.008;13.658;2023-11-21T22:58:41;10.57;;;9.47;;
64291;SDS011;50628;51.008;13.658;2023-11-21T23:03:43;10.77;;;9.60;;
64291;SDS011;50628;51.008;13.658;2023-11-21T23:08:47;10.83;;;9.73;;
64291;SDS011;50628;51.008;13.658;2023-11-21T23:13:49;10.13;;;8.90;;
64291;SDS011;50628;51.008;13.658;2023-11-21T23:18:51;11.50;;;9.70;;
64291;SDS011;50628;51.008;13.658;2023-11-21T23:23:55;13.57;;;10.57;;
64291;SDS011;50628;51.008;13.658;2023-11-21T23:28:57;13.20;;;11.80;;
64291;SDS011;50628;51.008;13.658;2023-11-21T23:33:59;16.87;;;13.17;;
64291;SDS011;50628;51.008;13.658;2023-11-21T23:39:03;15.43;;;11.40;;
64291;SDS011;50628;51.008;13.658;2023-11-21T23:44:05;13.77;;;10.00;;
64291;SDS011;50628;51.008;13.658;2023-11-21T23:49:07;11.27;;;9.33;;
64291;SDS011;50628;51.008;13.658;2023-11-21T23:54:10;15.40;;;10.53;;
64291;SDS011;50628;51.008;13.658;2023-11-21T23:59:12;13.47;;;10.53;;
